Latest Weather Observations for Perth Airport

IDW60901

Issued at 4:01 am WST Saturday 27 August 2016 (issued every 10 minutes, with the page automatically refreshed every 10 minutes)

About weather observations | Map of Perth area stations | Latest observations for Perth area | Other Formats
Station Details ID: 009021 Name: PERTH AIRPORT Lat: -31.93 Lon: 115.98 Height: 15.4 m
Data from the previous 72 hours. | See also: Recent months at Perth Airport
Date/Time
WST
Temp
°C
App
Temp
°C
Dew
Point
°C
Rel
Hum
%
Delta-T
°C
Wind Press
QNH
hPa
Press
MSL
hPa
Rain since
9am
mm
Dir  Spd
km/h
Gust
km/h
Spd
kts
Gust
kts
27/03:30am 12.3 8.1 11.0 92 0.7 NNW 24 30 13 16 1003.8 1003.8 27.0
27/03:00am 12.3 10.4 11.9 97 0.2 N 13 19 7 10 1004.0 1004.0 26.2
27/02:49am 12.3 10.8 11.9 97 0.2 NNW 11 19 6 10 1004.0 1004.0 25.8
27/02:35am 12.3 11.6 11.9 97 0.2 NW 7 9 4 5 1003.9 1003.9 25.6
27/02:30am 12.3 11.2 11.9 97 0.2 WNW 9 11 5 6 1004.0 1004.0 25.4
27/02:20am 12.3 11.7 11.7 96 0.3 W 6 11 3 6 1004.4 1004.4 25.0
27/02:00am 12.4 13.0 11.8 96 0.3 CALM 0 0 0 0 1003.6 1003.6 24.6
27/01:50am 12.4 13.0 11.8 96 0.3 CALM 0 6 0 3 1003.8 1003.8 24.4
27/01:30am 12.6 10.7 11.7 94 0.5 WSW 13 19 7 10 1004.7 1004.7 23.6
27/01:23am 12.7 10.4 11.6 93 0.6 WSW 15 22 8 12 1005.3 1005.3 23.2
27/01:12am 12.9 11.5 12.3 96 0.3 W 11 26 6 14 1005.5 1005.5 22.4
27/01:00am 13.0 11.7 12.4 96 0.3 WNW 11 15 6 8 1005.5 1005.5 21.4
27/12:54am 13.0 12.0 12.4 96 0.3 WNW 9 15 5 8 1005.5 1005.5 20.6
27/12:41am 13.0 12.6 12.3 95 0.4 W 6 9 3 5 1004.7 1004.7 19.8
27/12:30am 13.0 12.0 12.3 95 0.4 W 9 11 5 6 1004.7 1004.7 19.8
27/12:11am 13.0 10.8 12.1 94 0.5 WSW 15 22 8 12 1005.5 1005.5 17.8
27/12:00am 12.9 10.2 11.8 93 0.6 SW 17 26 9 14 1005.0 1005.0 17.0
 
Date/Time
WST
Temp
°C
App
Temp
°C
Dew
Point
°C
Rel
Hum
%
Delta-T
°C
Wind Press
QNH
hPa
Press
MSL
hPa
Rain since
9am
mm
Dir  Spd
km/h
Gust
km/h
Spd
kts
Gust
kts
26/11:58pm 12.9 10.7 12.2 95 0.4 SSW 15 26 8 14 1004.9 1004.9 16.8
26/11:30pm 13.0 11.7 12.4 96 0.3 SW 11 20 6 11 1005.5 1005.5 15.6
26/11:15pm 13.0 11.7 12.6 97 0.2 SSW 11 17 6 9 1006.0 1006.0 14.4
26/11:00pm 13.1 11.8 12.4 95 0.4 WSW 11 13 6 7 1006.1 1006.1 13.6
26/10:30pm 13.0 10.1 12.3 95 0.4 SW 19 26 10 14 1005.8 1005.8 12.6
26/10:00pm 13.3 9.2 12.6 95 0.4 SW 26 35 14 19 1007.0 1007.0 10.8
26/09:46pm 13.7 10.8 13.0 96 0.4 WSW 20 32 11 17 1006.9 1006.9 10.2
26/09:30pm 13.6 10.3 12.9 95 0.4 W 22 32 12 17 1006.8 1006.8 8.6
26/09:28pm 13.7 10.0 12.8 94 0.5 WSW 24 39 13 21 1006.9 1006.9 8.4
26/09:13pm 14.2 10.9 12.9 92 0.7 W 22 33 12 18 1006.8 1006.8 5.0
26/09:00pm 15.9 11.4 15.0 94 0.5 N 32 41 17 22 1006.0 1006.0 4.6
26/08:53pm 15.9 11.4 15.0 94 0.5 N 32 41 17 22 1006.1 1006.1 4.6
26/08:39pm 15.9 11.5 15.2 96 0.4 NNW 32 46 17 25 1006.3 1006.3 4.4
26/08:30pm 15.9 11.3 15.0 94 0.5 N 33 41 18 22 1006.4 1006.4 4.0
26/08:16pm 16.2 12.1 14.8 91 0.8 N 30 43 16 23 1006.7 1006.7 1.8
26/08:00pm 16.0 13.7 14.6 91 0.8 N 20 30 11 16 1006.6 1006.6 1.8
26/07:30pm 16.0 13.8 14.8 93 0.7 N 20 26 11 14 1006.6 1006.6 1.8
26/07:00pm 16.1 12.8 15.1 94 0.6 N 26 39 14 21 1007.2 1007.2 1.8
26/06:47pm 16.1 13.1 14.9 93 0.7 N 24 39 13 21 1007.5 1007.5 1.6
26/06:30pm 16.3 12.8 14.6 90 1.0 NW 26 41 14 22 1008.3 1008.3 1.2
26/06:27pm 16.5 13.3 14.2 86 1.3 WNW 24 41 13 22 1008.1 1008.1 0.2
26/06:00pm 19.0 15.1 9.4 53 5.1 NW 20 30 11 16 1007.1 1007.1 0.0
26/05:30pm 19.1 14.8 7.8 48 5.8 N 20 26 11 14 1006.8 1006.8 0.0
26/05:00pm 19.7 15.1 6.6 42 6.6 N 20 28 11 15 1006.9 1006.9 0.0
26/04:30pm 19.8 15.4 6.5 42 6.7 N 19 26 10 14 1007.2 1007.2 0.0
26/04:00pm 20.4 14.1 5.5 37 7.4 N 28 35 15 19 1007.3 1007.3 0.0
26/03:30pm 20.7 14.6 4.8 35 7.8 N 26 33 14 18 1007.5 1007.5 0.0
26/03:00pm 20.1 15.7 7.2 43 6.6 NNE 20 26 11 14 1007.7 1007.7 0.0
26/02:30pm 19.4 13.7 6.7 43 6.4 NNE 26 32 14 17 1007.9 1007.9 0.0
26/02:00pm 19.2 14.5 6.1 42 6.5 NNE 20 26 11 14 1008.7 1008.7 0.0
26/01:30pm 19.1 14.0 6.0 42 6.5 N 22 32 12 17 1009.1 1009.1 0.0
26/01:00pm 19.3 13.3 5.2 39 6.9 N 26 33 14 18 1009.7 1009.7 0.0
26/12:30pm 19.0 11.9 3.8 36 7.2 N 30 39 16 21 1010.2 1010.2 0.0
26/12:00pm 19.6 12.1 4.2 36 7.4 NNE 33 43 18 23 1010.4 1010.4 0.0
26/11:30am 18.1 10.6 3.3 37 6.9 NNE 32 43 17 23 1011.1 1011.1 0.0
26/11:00am 18.0 10.5 3.4 38 6.8 N 32 39 17 21 1011.8 1011.8 0.0
26/10:30am 17.8 10.7 3.4 38 6.7 N 30 39 16 21 1012.1 1012.1 0.0
26/10:00am 17.6 10.6 4.0 40 6.4 NNE 30 39 16 21 1012.6 1012.6 0.0
26/09:30am 16.5 11.1 4.4 44 5.7 NNE 22 30 12 16 1013.0 1013.0 0.0
26/09:00am 16.5 11.0 4.1 43 5.8 NNE 22 28 12 15 1013.3 1013.3 0.0
26/08:30am 15.6 10.7 3.9 45 5.4 NNE 19 22 10 12 1013.5 1013.5 0.0
26/08:00am 14.6 10.0 3.6 47 5.0 NNE 17 19 9 10 1013.6 1013.6 0.0
26/07:30am 14.4 9.6 2.7 45 5.2 NNE 17 22 9 12 1013.5 1013.5 0.0
26/07:00am 14.4 9.6 2.7 45 5.2 NNE 17 20 9 11 1013.2 1013.2 0.0
26/06:30am 14.8 9.4 2.4 43 5.5 NNE 20 39 11 21 1013.3 1013.3 0.0
26/06:00am 14.9 9.2 2.6 43 5.5 NNE 22 30 12 16 1013.2 1013.2 0.0
26/05:30am 15.4 9.6 2.1 40 5.9 NNE 22 30 12 16 1013.5 1013.5 0.0
26/05:00am 15.5 8.9 1.9 40 6.0 NNE 26 33 14 18 1013.8 1013.8 0.0
26/04:30am 15.7 9.5 1.9 39 6.1 NNE 24 33 13 18 1013.8 1013.8 0.0
26/04:00am 15.7 9.9 2.3 40 6.0 NE 22 30 12 16 1013.9 1013.9 0.0
26/03:30am 15.8 11.0 2.4 40 6.0 NE 17 26 9 14 1014.2 1014.2 0.0
26/03:00am 15.6 10.5 3.0 43 5.7 NE 19 26 10 14 1014.6 1014.6 0.0
26/02:30am 15.8 10.9 2.1 39 6.1 NE 17 19 9 10 1014.9 1014.9 0.0
26/02:00am 15.5 10.3 2.6 42 5.8 NE 19 28 10 15 1015.3 1015.3 0.0
26/01:30am 15.3 10.9 2.9 43 5.6 NE 15 19 8 10 1016.0 1016.0 0.0
26/01:00am 15.2 9.8 2.7 43 5.6 NE 20 26 11 14 1016.4 1016.4 0.0
26/12:30am 15.2 9.9 3.0 44 5.5 NE 20 30 11 16 1016.6 1016.6 0.0
26/12:00am 14.9 10.6 3.1 45 5.3 NE 15 20 8 11 1016.9 1016.9 0.0
 
Date/Time
WST
Temp
°C
App
Temp
°C
Dew
Point
°C
Rel
Hum
%
Delta-T
°C
Wind Press
QNH
hPa
Press
MSL
hPa
Rain since
9am
mm
Dir  Spd
km/h
Gust
km/h
Spd
kts
Gust
kts
25/11:30pm 14.2 9.6 3.6 49 4.8 NE 17 20 9 11 1017.1 1017.1 0.0
25/11:00pm 14.1 12.6 4.8 53 4.3 NE 2 7 1 4 1017.3 1017.3 0.0
25/10:30pm 14.1 9.9 4.0 50 4.6 ENE 15 32 8 17 1018.1 1018.1 0.0
25/10:00pm 14.5 9.9 3.7 48 4.9 ENE 17 20 9 11 1018.2 1018.2 0.0
25/09:30pm 14.3 9.8 4.0 50 4.7 ENE 17 20 9 11 1018.5 1018.5 0.0
25/09:00pm 14.4 8.6 4.2 50 4.7 NE 24 32 13 17 1018.4 1018.4 0.0
25/08:30pm 14.4 10.8 5.0 53 4.4 ENE 13 17 7 9 1019.0 1019.0 0.0
25/08:00pm 14.2 11.5 5.8 57 4.0 ENE 9 13 5 7 1018.8 1018.8 0.0
25/07:30pm 14.4 11.5 6.3 58 3.9 ENE 11 13 6 7 1018.7 1018.7 0.0
25/07:00pm 14.9 11.1 5.6 53 4.4 ENE 15 17 8 9 1018.5 1018.5 0.0
25/06:30pm 15.4 11.5 5.5 51 4.7 ENE 15 17 8 9 1018.7 1018.7 0.0
25/06:00pm 15.8 11.2 5.8 51 4.8 ENE 19 26 10 14 1018.8 1018.8 0.0
25/05:30pm 16.6 11.6 4.7 45 5.6 ENE 20 32 11 17 1018.5 1018.5 0.0
25/05:00pm 17.1 12.2 4.3 42 6.0 NE 19 28 10 15 1018.7 1018.7 0.0
25/04:30pm 17.9 12.3 5.5 44 6.0 ENE 24 33 13 18 1019.0 1019.0 0.0
25/04:00pm 18.3 12.7 5.2 42 6.3 NE 24 32 13 17 1018.8 1018.8 0.0
25/03:30pm 18.4 13.2 5.4 42 6.3 ENE 22 35 12 19 1019.2 1019.2 0.0
25/03:00pm 18.3 13.5 5.8 44 6.1 ENE 20 32 11 17 1019.6 1019.6 0.0
25/02:30pm 18.0 12.9 6.1 45 5.9 ENE 22 32 12 17 1019.9 1019.9 0.0
25/02:00pm 17.8 13.0 5.8 45 5.8 ENE 20 32 11 17 1020.6 1020.6 0.0
25/01:30pm 17.4 11.7 4.8 43 6.0 NE 24 32 13 17 1021.1 1021.1 0.0
25/01:00pm 17.4 12.1 5.1 44 5.9 NE 22 37 12 20 1021.6 1021.6 0.0
25/12:30pm 16.9 12.1 5.7 47 5.4 ENE 20 32 11 17 1022.2 1022.2 0.0
25/12:00pm 16.5 10.1 5.1 47 5.4 E 28 33 15 18 1022.9 1022.9 0.0
25/11:30am 15.9 9.9 5.1 48 5.1 ENE 26 35 14 19 1023.5 1023.6 0.0
25/11:00am 15.4 9.0 5.0 50 4.9 ENE 28 35 15 19 1024.0 1024.1 0.0
25/10:30am 14.7 7.4 4.7 51 4.7 NE 32 41 17 22 1024.6 1024.7 0.0
25/10:00am 14.3 8.3 5.2 54 4.2 ENE 26 32 14 17 1025.0 1025.1 0.0
25/09:30am 12.8 6.4 5.3 60 3.5 ENE 28 33 15 18 1025.2 1025.3 0.0
25/09:00am 11.6 6.6 4.7 62 3.1 ENE 20 28 11 15 1025.3 1025.3 0.0
25/08:30am 10.0 2.7 4.7 69 2.4 ENE 32 37 17 20 1025.3 1025.4 0.0
25/08:00am 9.0 2.0 4.3 72 2.1 ENE 30 41 16 22 1025.2 1025.3 0.0
25/07:30am 8.3 1.3 3.9 74 1.9 ENE 30 37 16 20 1025.1 1025.1 0.0
25/07:00am 7.8 1.1 3.8 76 1.7 ENE 28 35 15 19 1024.9 1024.9 0.0
25/06:30am 7.7 0.6 3.7 76 1.7 ENE 30 37 16 20 1024.4 1024.4 0.0
25/06:00am 7.6 1.3 3.6 76 1.7 ENE 26 33 14 18 1024.2 1024.2 0.0
25/05:30am 7.8 1.8 3.3 73 1.9 ENE 24 32 13 17 1024.0 1024.0 0.0
25/05:00am 8.2 1.4 3.2 71 2.1 ENE 28 37 15 20 1023.8 1023.8 0.0
25/04:30am 8.4 1.3 3.5 71 2.1 E 30 39 16 21 1023.7 1023.7 0.0
25/04:00am 8.6 1.5 3.5 70 2.2 ENE 30 39 16 21 1023.5 1023.5 0.0
25/03:30am 8.8 1.7 3.4 69 2.3 ENE 30 39 16 21 1023.5 1023.5 0.0
25/03:00am 8.9 2.2 3.6 69 2.3 ENE 28 39 15 21 1023.5 1023.5 0.0
25/02:30am 9.0 3.8 3.7 69 2.3 NE 20 33 11 18 1023.9 1023.9 0.0
25/02:00am 9.0 4.0 3.7 69 2.3 NE 19 28 10 15 1024.2 1024.2 0.0
25/01:30am 8.9 3.9 3.8 70 2.2 NE 19 26 10 14 1024.2 1024.2 0.0
25/01:00am 9.1 3.9 3.8 69 2.3 ENE 20 32 11 17 1024.3 1024.3 0.0
25/12:30am 8.8 3.9 4.0 72 2.1 ENE 19 28 10 15 1024.4 1024.4 0.0
25/12:00am 8.1 4.3 3.9 75 1.8 NE 13 17 7 9 1024.6 1024.6 0.0
 
Date/Time
WST
Temp
°C
App
Temp
°C
Dew
Point
°C
Rel
Hum
%
Delta-T
°C
Wind Press
QNH
hPa
Press
MSL
hPa
Rain since
9am
mm
Dir  Spd
km/h
Gust
km/h
Spd
kts
Gust
kts
24/11:30pm 7.4 4.3 3.6 77 1.6 ENE 9 13 5 7 1024.9 1024.9 0.0
24/11:00pm 5.3 2.6 3.6 89 0.7 ESE 7 13 4 7 1025.0 1025.0 0.0
24/10:30pm 5.2 1.1 4.3 94 0.4 SE 15 26 8 14 1025.1 1025.1 0.0
24/10:00pm 5.4 2.4 4.0 91 0.6 ESE 9 9 5 5 1025.2 1025.2 0.0
24/09:30pm 5.9 3.4 4.7 92 0.5 E 7 9 4 5 1025.2 1025.2 0.0
24/09:00pm 6.6 4.3 4.8 88 0.8 E 6 7 3 4 1025.1 1025.1 0.0
24/08:30pm 7.6 3.5 4.1 78 1.5 ESE 15 15 8 8 1025.1 1025.1 0.0
24/08:00pm 8.7 5.0 4.6 75 1.8 SE 13 15 7 8 1025.3 1025.3 0.0
24/07:30pm 9.8 6.1 4.6 70 2.3 ESE 13 15 7 8 1025.4 1025.4 0.0
24/07:00pm 11.3 7.5 4.1 61 3.2 ESE 13 15 7 8 1025.3 1025.3 0.0
24/06:30pm 12.2 8.4 3.9 57 3.7 ESE 13 19 7 10 1024.9 1024.9 0.0
24/06:00pm 13.0 8.0 3.6 53 4.2 ESE 19 24 10 13 1024.4 1024.4 0.0
24/05:30pm 14.4 8.9 2.0 43 5.4 E 20 33 11 18 1024.2 1024.2 0.0
24/05:00pm 15.3 9.9 2.2 41 5.8 ESE 20 35 11 19 1023.8 1023.8 0.0
24/04:30pm 16.0 10.6 2.3 39 6.1 E 20 30 11 16 1023.8 1023.8 0.0
24/04:00pm 16.1 10.7 1.5 37 6.4 E 19 35 10 19 1023.7 1023.7 0.0
24/03:30pm 16.6 11.7 2.0 37 6.5 ENE 17 24 9 13 1023.6 1023.6 0.0
24/03:00pm 16.4 11.3 1.0 35 6.7 E 17 28 9 15 1023.5 1023.5 0.0
24/02:30pm 16.0 10.9 1.0 36 6.5 ENE 17 28 9 15 1023.8 1023.8 0.0
24/02:00pm 15.7 11.4 1.2 37 6.3 E 13 28 7 15 1024.0 1024.0 0.0
24/01:30pm 15.5 11.0 -0.6 33 6.7 E 13 22 7 12 1024.3 1024.3 0.0
24/01:00pm 15.1 11.1 0.2 36 6.3 E 11 19 6 10 1024.6 1024.6 0.0
24/12:30pm 14.7 8.8 -0.5 35 6.3 E 20 30 11 16 1025.2 1025.2 0.0
24/12:00pm 14.5 9.3 -0.1 37 6.1 ENE 17 22 9 12 1025.6 1025.6 0.0
24/11:30am 14.0 8.4 0.1 38 5.8 ENE 19 28 10 15 1025.8 1025.8 0.0
24/11:00am 13.6 7.9 0.8 41 5.4 ESE 20 30 11 16 1026.0 1026.0 0.0
24/10:30am 12.7 7.3 1.0 45 4.9 E 19 28 10 15 1026.4 1026.4 0.0
24/10:00am 11.9 4.8 1.4 48 4.4 E 28 33 15 18 1026.5 1026.5 0.0
24/09:30am 10.8 3.8 1.7 53 3.8 E 28 32 15 17 1026.7 1026.7 0.0
24/09:00am 9.4 2.3 1.6 58 3.2 E 28 33 15 18 1026.6 1026.6 0.0
24/08:30am 8.1 0.3 1.7 64 2.6 E 32 39 17 21 1026.2 1026.2 0.0
24/08:00am 7.3 0.2 1.6 67 2.3 E 28 35 15 19 1025.8 1025.8 0.0
24/07:30am 6.6 0.7 1.6 70 2.0 E 22 30 12 16 1025.7 1025.7 0.0
24/07:00am 5.8 -0.5 1.5 74 1.7 E 24 33 13 18 1025.6 1025.6 0.0
24/06:30am 5.8 -0.5 1.5 74 1.7 E 24 33 13 18 1025.4 1025.4 0.0
24/06:00am 5.9 0.0 1.6 74 1.7 E 22 28 12 15 1025.2 1025.2 0.0
24/05:30am 6.4 0.8 1.4 70 2.0 E 20 28 11 15 1024.9 1024.9 0.0
24/05:00am 6.5 1.1 1.5 70 2.0 E 19 26 10 14 1024.9 1024.9 0.0
24/04:30am 6.8 1.5 1.6 69 2.1 E 19 24 10 13 1024.9 1024.9 0.0

Latest Capital City Observations: Canberra | Sydney | Melbourne | Brisbane | Adelaide | Perth | Hobart | Darwin

Other Formats:

Comma delimited format used in spreadsheet applications
http://www.bom.gov.au/fwo/IDW60901/IDW60901.94610.axf

JavaScript Object Notation format (JSON) in row-major order
http://www.bom.gov.au/fwo/IDW60901/IDW60901.94610.json